Time;durP1;ratioP1;P1;durP2;ratioP2;P2;SDS_P1;SDS_P2;PMS_P1;PMS_P2;Temp;Humidity;BMP_temperature;BMP_pressure;BME280_temperature;BME280_humidity;BME280_pressure;Samples;Min_cycle;Max_cycle;Signal;HPM_P1;HPM_P2
2022/03/12 00:01:00;;;;;;;28.45;16.00;;;;;;;20.55;38.93;101937.88;20655927;27;101494;-78
2022/03/12 00:11:07;;;;;;;26.40;15.50;;;;;;;20.52;38.77;101947.69;20655070;28;97448;-78
2022/03/12 00:21:13;;;;;;;24.98;14.57;;;;;;;20.51;38.87;101938.09;20653833;28;97069;-78
2022/03/12 00:31:14;;;;;;;23.88;14.05;;;;;;;20.47;38.75;101935.63;20656271;28;99930;-77
2022/03/12 00:41:16;;;;;;;23.70;13.18;;;;;;;20.45;39.13;101952.44;20651801;28;97056;-78
2022/03/12 00:51:17;;;;;;;22.65;12.80;;;;;;;20.39;38.64;101955.34;20651969;28;98274;-78
2022/03/12 01:01:18;;;;;;;20.60;12.15;;;;;;;20.38;38.91;101959.75;20657135;28;98141;-78
2022/03/12 01:11:19;;;;;;;19.45;11.48;;;;;;;20.33;38.71;101940.72;20662512;27;97557;-78
2022/03/12 01:21:20;;;;;;;18.48;11.10;;;;;;;20.27;38.84;101962.06;20673028;27;97406;-78
2022/03/12 01:31:21;;;;;;;16.38;10.60;;;;;;;20.27;39.02;101965.53;20666686;28;97002;-78
2022/03/12 01:41:28;;;;;;;18.50;10.75;;;;;;;20.26;39.22;101971.75;20663560;28;97269;-77
2022/03/12 01:51:29;;;;;;;17.30;10.68;;;;;;;20.23;39.23;101957.88;20673493;27;97437;-77
2022/03/12 02:01:30;;;;;;;16.73;9.52;;;;;;;20.21;38.75;101962.38;20662047;27;97708;-78
2022/03/12 02:11:32;;;;;;;14.77;9.47;;;;;;;20.18;38.90;101959.88;20661511;27;97692;-77
2022/03/12 02:21:53;;;;;;;14.57;8.80;;;;;;;20.13;39.09;101968.84;20659830;28;98195;-78
2022/03/12 02:31:57;;;;;;;12.93;8.35;;;;;;;20.14;39.10;101969.69;20656039;27;96963;-77
2022/03/12 02:42:00;;;;;;;12.63;7.97;;;;;;;20.10;39.22;101976.91;20651466;28;99192;-77
2022/03/12 02:52:01;;;;;;;14.02;8.65;;;;;;;20.07;39.52;101974.41;20653989;28;97172;-77
2022/03/12 03:02:03;;;;;;;13.17;8.27;;;;;;;20.06;38.60;101988.47;20656272;28;97847;-77
2022/03/12 03:12:08;;;;;;;12.75;7.63;;;;;;;20.05;39.18;101983.28;20655604;28;97191;-77
2022/03/12 03:22:11;;;;;;;10.98;7.15;;;;;;;20.04;38.90;101984.22;20657950;27;96914;-78
2022/03/12 03:32:13;;;;;;;10.57;6.78;;;;;;;20.02;39.25;101984.28;20647005;28;97307;-77
2022/03/12 03:42:20;;;;;;;9.40;6.40;;;;;;;20.04;39.02;101987.69;20648154;28;97737;-77
2022/03/12 03:52:21;;;;;;;9.55;6.18;;;;;;;20.03;39.26;101995.66;20650352;28;97724;-77
2022/03/12 04:02:22;;;;;;;10.48;6.50;;;;;;;19.99;38.60;101992.31;20649103;27;100320;-77
2022/03/12 04:12:23;;;;;;;9.88;6.00;;;;;;;19.99;38.89;101985.28;20650737;28;98351;-78
2022/03/12 04:22:25;;;;;;;10.02;6.10;;;;;;;19.98;39.11;101990.59;20658081;28;96912;-78
2022/03/12 04:32:26;;;;;;;8.77;5.75;;;;;;;19.95;39.11;101985.50;20654254;27;97361;-77
2022/03/12 04:42:27;;;;;;;7.50;5.28;;;;;;;19.96;39.14;101995.09;20654802;28;97344;-77
2022/03/12 04:52:27;;;;;;;8.00;5.55;;;;;;;19.98;38.97;101995.84;20691040;28;97000;-77
2022/03/12 05:02:28;;;;;;;7.97;5.40;;;;;;;19.94;39.12;101997.78;20675352;28;97412;-77
2022/03/12 05:12:28;;;;;;;8.38;5.20;;;;;;;19.96;38.54;101993.31;20676754;28;97121;-78
2022/03/12 05:22:29;;;;;;;7.03;4.95;;;;;;;20.06;38.56;102008.66;20674447;27;96912;-78
2022/03/12 05:32:31;;;;;;;9.43;5.65;;;;;;;20.14;38.37;102007.38;20675920;28;97400;-79
2022/03/12 05:42:32;;;;;;;6.90;4.90;;;;;;;20.23;38.58;102008.69;20668499;27;97919;-77
2022/03/12 05:52:33;;;;;;;10.70;5.18;;;;;;;20.40;39.27;102014.94;20659757;28;98857;-77
2022/03/12 06:02:34;;;;;;;7.13;4.90;;;;;;;20.50;39.21;102020.63;20670457;27;97876;-78
2022/03/12 06:12:34;;;;;;;9.32;5.53;;;;;;;20.57;39.43;102014.97;20670291;28;101051;-75
2022/03/12 06:22:36;;;;;;;11.68;5.30;;;;;;;20.66;39.61;102018.94;20664954;27;99345;-78
2022/03/12 06:32:42;;;;;;;10.57;5.50;;;;;;;20.73;40.41;102025.63;20667654;28;98355;-77
2022/03/12 06:42:50;;;;;;;9.13;5.53;;;;;;;20.83;40.78;102035.72;20671139;28;96939;-78
2022/03/12 06:52:51;;;;;;;8.77;5.10;;;;;;;20.89;40.72;102044.13;20655644;27;98031;-79
2022/03/12 07:02:52;;;;;;;9.95;5.10;;;;;;;20.95;40.54;102051.72;20672343;28;98984;-79
2022/03/12 07:12:54;;;;;;;7.68;5.20;;;;;;;20.99;40.66;102055.06;20700855;27;97236;-78
2022/03/12 07:22:55;;;;;;;6.10;4.90;;;;;;;21.05;40.48;102053.91;20654732;28;97918;-76
2022/03/12 07:32:55;;;;;;;7.35;5.15;;;;;;;21.15;40.56;102051.66;20662301;28;97248;-79
2022/03/12 07:42:56;;;;;;;29.42;14.55;;;;;;;21.22;40.61;102055.69;20660765;27;100714;-78
2022/03/12 07:52:57;;;;;;;25.23;12.88;;;;;;;21.26;40.20;102037.03;20664234;28;97887;-76
2022/03/12 08:02:58;;;;;;;29.23;13.70;;;;;;;21.27;40.70;102036.06;20654674;28;98044;-76
2022/03/12 08:12:59;;;;;;;31.73;14.40;;;;;;;21.28;39.87;102039.56;20665643;28;97910;-76
2022/03/12 08:23:00;;;;;;;13.15;6.60;;;;;;;19.11;30.51;102046.09;20661871;28;97660;-77
2022/03/12 08:33:01;;;;;;;21.25;7.85;;;;;;;20.60;34.14;102033.25;20658535;28;98015;-75
2022/03/12 08:43:03;;;;;;;18.58;6.85;;;;;;;20.86;34.45;102027.66;20651051;28;97328;-75
2022/03/12 08:53:04;;;;;;;16.13;6.30;;;;;;;21.00;34.81;102032.25;20634135;28;97823;-75
2022/03/12 09:03:05;;;;;;;10.55;5.93;;;;;;;21.06;35.64;102029.28;20646060;28;97436;-75
2022/03/12 09:13:06;;;;;;;10.07;5.43;;;;;;;21.10;36.15;102023.78;20648479;28;97474;-75
2022/03/12 09:23:07;;;;;;;9.10;5.15;;;;;;;21.07;36.12;102016.03;20639714;28;97232;-75
2022/03/12 09:33:07;;;;;;;10.70;5.55;;;;;;;21.10;36.36;102002.72;20655299;28;97603;-75
2022/03/12 09:43:09;;;;;;;16.23;10.68;;;;;;;21.11;36.12;102004.41;20656788;27;96938;-74
2022/03/12 09:53:10;;;;;;;9.32;5.30;;;;;;;21.15;36.00;101994.56;20659438;28;99062;-74
2022/03/12 10:03:10;;;;;;;7.88;5.00;;;;;;;21.17;36.46;101991.88;20661884;28;97607;-74
2022/03/12 10:13:11;;;;;;;8.32;4.85;;;;;;;21.21;36.59;101977.59;20658519;27;97033;-74
2022/03/12 10:23:11;;;;;;;9.18;4.78;;;;;;;21.25;36.61;101981.75;20645805;28;99444;-75
2022/03/12 10:33:23;;;;;;;7.20;4.05;;;;;;;21.29;36.38;101967.50;20645100;28;97793;-74
2022/03/12 10:43:24;;;;;;;5.40;4.23;;;;;;;21.33;36.37;101960.28;20650534;28;97056;-75
2022/03/12 10:53:25;;;;;;;7.40;4.30;;;;;;;21.37;36.12;101951.28;20648479;28;97440;-74
2022/03/12 11:03:30;;;;;;;6.72;3.72;;;;;;;21.41;36.36;101940.50;20647761;27;97259;-74
2022/03/12 11:13:47;;;;;;;8.90;4.00;;;;;;;21.49;36.32;101928.69;20648123;28;97684;-75
2022/03/12 11:23:47;;;;;;;6.45;3.60;;;;;;;21.57;36.52;101918.63;20647604;28;97203;-74
2022/03/12 11:33:47;;;;;;;6.05;3.42;;;;;;;21.63;36.19;101906.88;20647994;28;97084;-75
2022/03/12 11:43:47;;;;;;;4.82;3.50;;;;;;;21.71;36.08;101894.13;20651315;28;98189;-74
2022/03/12 11:53:48;;;;;;;7.07;3.63;;;;;;;21.78;36.13;101879.66;20647863;27;98057;-74
2022/03/12 12:03:50;;;;;;;5.35;3.35;;;;;;;21.88;35.80;101866.81;20645519;28;97413;-75
2022/03/12 12:13:51;;;;;;;6.07;3.58;;;;;;;21.94;36.12;101845.34;20644829;28;97027;-75
2022/03/12 12:23:51;;;;;;;5.53;3.95;;;;;;;22.02;35.75;101845.78;20647172;28;97947;-75
2022/03/12 12:33:55;;;;;;;5.03;3.50;;;;;;;22.09;35.63;101827.78;20653381;28;97319;-74
2022/03/12 12:44:05;;;;;;;4.75;3.40;;;;;;;22.16;35.88;101813.28;20644060;28;97593;-75
2022/03/12 12:54:07;;;;;;;3.65;3.00;;;;;;;22.22;35.63;101814.72;20648754;28;97086;-75
2022/03/12 13:04:09;;;;;;;4.53;3.40;;;;;;;22.30;35.63;101801.94;20644879;28;97663;-74
2022/03/12 13:14:11;;;;;;;4.23;3.23;;;;;;;22.34;35.36;101787.59;20657435;28;98073;-75
2022/03/12 13:24:19;;;;;;;12.73;3.97;;;;;;;22.37;35.01;101783.94;20643490;27;96956;-75
2022/03/12 13:34:20;;;;;;;7.72;3.38;;;;;;;22.46;35.44;101783.41;20655895;28;99925;-75
2022/03/12 13:44:22;;;;;;;5.07;2.88;;;;;;;22.51;35.58;101765.50;20671065;27;97099;-75
2022/03/12 13:54:25;;;;;;;5.83;2.80;;;;;;;22.54;35.81;101760.03;20661105;28;97765;-75
2022/03/12 14:04:28;;;;;;;5.25;3.00;;;;;;;22.58;35.92;101742.19;20659377;27;97594;-74
2022/03/12 14:14:29;;;;;;;3.97;2.60;;;;;;;22.63;35.88;101734.88;20665603;28;98860;-75
2022/03/12 14:24:40;;;;;;;4.78;2.70;;;;;;;22.65;35.76;101729.47;20666855;28;100552;-76
2022/03/12 14:34:43;;;;;;;5.68;2.80;;;;;;;22.69;36.01;101733.63;20652719;28;97589;-74
2022/03/12 14:44:49;;;;;;;4.43;2.83;;;;;;;22.69;36.01;101734.47;20662431;28;96867;-74
2022/03/12 14:54:51;;;;;;;4.47;3.05;;;;;;;22.74;36.10;101739.47;20663362;28;97289;-73
2022/03/12 15:04:54;;;;;;;;;;;;;;;22.74;36.15;101721.00;20660605;27;97962;-74
2022/03/12 15:14:57;;;;;;;4.05;3.10;;;;;;;22.65;36.47;101714.47;20656797;27;98516;-74
2022/03/12 15:24:59;;;;;;;3.70;2.80;;;;;;;22.60;36.27;101707.81;20645257;27;96953;-75
2022/03/12 15:35:00;;;;;;;3.65;2.90;;;;;;;22.60;36.06;101705.16;20658253;28;96896;-73
2022/03/12 15:45:00;;;;;;;5.78;3.47;;;;;;;22.53;36.59;101697.63;20653979;28;97567;-75
2022/03/12 15:55:01;;;;;;;3.67;2.88;;;;;;;22.49;35.78;101695.28;20677106;28;96969;-74
2022/03/12 16:05:03;;;;;;;3.93;2.80;;;;;;;22.36;36.62;101696.00;20648695;28;107549;-75
2022/03/12 16:15:10;;;;;;;4.57;2.80;;;;;;;22.34;37.11;101686.50;20660360;28;97505;-75
2022/03/12 16:25:16;;;;;;;4.88;2.90;;;;;;;22.29;37.03;101683.25;20626231;28;98093;-75
2022/03/12 16:35:26;;;;;;;4.07;3.08;;;;;;;22.26;36.54;101688.75;20647799;28;96911;-75
2022/03/12 16:45:29;;;;;;;4.88;4.10;;;;;;;22.20;38.02;101693.47;20665464;27;97846;-75
2022/03/12 16:55:30;;;;;;;5.90;3.85;;;;;;;22.17;38.38;101693.63;20675808;28;97477;-74
2022/03/12 17:05:34;;;;;;;5.78;3.67;;;;;;;22.10;37.65;101688.84;20665153;27;96978;-75
2022/03/12 17:15:35;;;;;;;7.03;3.22;;;;;;;22.02;37.83;101692.78;20659572;28;97633;-74
2022/03/12 17:25:35;;;;;;;4.68;2.70;;;;;;;22.00;38.10;101692.03;20660496;27;98065;-73
2022/03/12 17:35:36;;;;;;;29.98;12.35;;;;;;;21.97;38.13;101683.44;20638786;28;98028;-74
2022/03/12 17:45:36;;;;;;;26.67;11.38;;;;;;;21.93;38.01;101681.94;20667635;28;100991;-75
2022/03/12 17:55:38;;;;;;;26.63;12.60;;;;;;;21.91;38.61;101674.13;20665436;27;99497;-74
2022/03/12 18:05:41;;;;;;;44.83;14.50;;;;;;;21.86;38.99;101673.53;20680745;28;98006;-74
2022/03/12 18:15:43;;;;;;;29.23;12.50;;;;;;;21.80;38.64;101673.91;20680815;27;97603;-74
2022/03/12 18:25:49;;;;;;;30.10;11.40;;;;;;;21.72;38.81;101677.00;20670748;27;97966;-75
2022/03/12 18:35:50;;;;;;;25.35;9.95;;;;;;;21.71;38.67;101675.31;20677301;27;97434;-74
2022/03/12 18:45:51;;;;;;;21.20;9.07;;;;;;;21.64;38.84;101668.69;20677528;27;98163;-74
2022/03/12 18:55:52;;;;;;;18.85;7.88;;;;;;;21.59;38.70;101661.06;20667036;28;97011;-75
2022/03/12 19:05:55;;;;;;;20.90;7.82;;;;;;;21.54;38.17;101652.56;20656778;27;100403;-77
2022/03/12 19:15:56;;;;;;;13.07;6.72;;;;;;;21.46;38.22;101639.84;20657842;27;97544;-76
2022/03/12 19:25:58;;;;;;;17.00;6.97;;;;;;;21.51;38.28;101634.31;20651816;28;97992;-76
2022/03/12 19:35:58;;;;;;;13.83;5.83;;;;;;;21.50;38.04;101636.06;20669555;28;98142;-77
2022/03/12 19:46:00;;;;;;;13.35;5.57;;;;;;;21.50;38.26;101638.72;20654141;28;96846;-77
2022/03/12 19:56:00;;;;;;;14.25;5.90;;;;;;;21.51;38.56;101643.03;20649413;28;97095;-77
2022/03/12 20:06:01;;;;;;;14.38;5.43;;;;;;;21.43;38.64;101643.50;20663887;27;97071;-78
2022/03/12 20:16:06;;;;;;;16.52;5.93;;;;;;;21.32;38.51;101638.00;20653077;28;98742;-78
2022/03/12 20:26:08;;;;;;;16.83;5.65;;;;;;;21.25;38.36;101653.31;20646438;28;101207;-78
2022/03/12 20:36:09;;;;;;;11.00;4.63;;;;;;;21.27;38.88;101645.31;20661249;28;97653;-78
2022/03/12 20:46:10;;;;;;;13.98;4.65;;;;;;;21.24;39.16;101643.72;20649740;28;99568;-78
2022/03/12 20:56:11;;;;;;;11.63;5.35;;;;;;;21.25;39.13;101648.06;20661339;28;97066;-77
2022/03/12 21:06:13;;;;;;;13.25;5.45;;;;;;;21.19;39.33;101639.63;20651318;27;97166;-77
2022/03/12 21:16:14;;;;;;;11.45;5.32;;;;;;;21.16;39.60;101640.66;20651121;28;96880;-76
2022/03/12 21:26:15;;;;;;;10.80;5.82;;;;;;;21.09;39.35;101632.28;20653554;28;97114;-77
2022/03/12 21:36:15;;;;;;;11.35;5.70;;;;;;;21.09;39.32;101605.09;20662632;27;97369;-77
2022/03/12 21:46:18;;;;;;;9.40;6.05;;;;;;;21.01;38.94;101604.69;20662353;28;98478;-78
2022/03/12 21:56:19;;;;;;;10.63;6.30;;;;;;;21.01;39.11;101594.16;20670898;28;101594;-78
2022/03/12 22:06:19;;;;;;;12.43;6.33;;;;;;;20.94;38.71;101602.38;20659956;28;97480;-78
2022/03/12 22:16:20;;;;;;;11.52;6.03;;;;;;;20.88;38.72;101597.47;20663261;27;97170;-78
2022/03/12 22:26:21;;;;;;;12.52;6.72;;;;;;;20.84;38.51;101592.50;20656865;28;99043;-76
2022/03/12 22:36:23;;;;;;;12.95;7.03;;;;;;;20.82;38.49;101591.72;20650420;28;99726;-75
2022/03/12 22:46:26;;;;;;;12.00;7.17;;;;;;;20.79;38.32;101590.94;20653570;28;97551;-75
2022/03/12 22:56:27;;;;;;;16.33;8.03;;;;;;;20.75;38.14;101583.31;20654546;28;98324;-77
2022/03/12 23:16:48;;;;;;;12.65;7.88;;;;;;;20.72;38.41;101583.50;20649279;28;97770;-77
2022/03/12 23:26:50;;;;;;;11.82;7.95;;;;;;;20.67;38.39;101577.63;20642783;28;100154;-77
2022/03/12 23:36:52;;;;;;;14.73;8.07;;;;;;;20.67;38.34;101580.25;20649984;28;97804;-77
2022/03/12 23:46:54;;;;;;;13.63;8.90;;;;;;;20.60;38.57;101574.47;20640042;28;99212;-77
2022/03/12 23:56:55;;;;;;;13.10;7.70;;;;;;;20.57;39.07;101577.28;20634936;28;97764;-76
